sensor_id;sensor_type;location;lat;lon;timestamp;pressure;altitude;pressure_sealevel;temperature;humidity
54592;BME280;40488;48.558;18.150;2023-06-14T00:00:38;99314.50;;;13.11;71.82
54592;BME280;40488;48.558;18.150;2023-06-14T00:03:08;99320.47;;;13.12;71.76
54592;BME280;40488;48.558;18.150;2023-06-14T00:05:38;99318.81;;;13.09;72.02
54592;BME280;40488;48.558;18.150;2023-06-14T00:08:10;99312.03;;;13.04;72.35
54592;BME280;40488;48.558;18.150;2023-06-14T00:10:39;99319.66;;;13.10;72.01
54592;BME280;40488;48.558;18.150;2023-06-14T00:13:11;99312.00;;;13.05;71.89
54592;BME280;40488;48.558;18.150;2023-06-14T00:15:40;99309.34;;;13.14;71.75
54592;BME280;40488;48.558;18.150;2023-06-14T00:18:10;99317.72;;;13.24;71.17
54592;BME280;40488;48.558;18.150;2023-06-14T00:20:39;99313.44;;;13.24;71.24
54592;BME280;40488;48.558;18.150;2023-06-14T00:23:10;99313.31;;;13.30;71.24
54592;BME280;40488;48.558;18.150;2023-06-14T00:25:39;99311.69;;;13.26;71.03
54592;BME280;40488;48.558;18.150;2023-06-14T00:28:08;99317.66;;;13.25;71.30
54592;BME280;40488;48.558;18.150;2023-06-14T00:30:38;99311.81;;;13.17;71.17
54592;BME280;40488;48.558;18.150;2023-06-14T00:33:07;99317.75;;;13.21;71.22
54592;BME280;40488;48.558;18.150;2023-06-14T00:35:36;99314.47;;;13.14;71.47
54592;BME280;40488;48.558;18.150;2023-06-14T00:38:05;99323.72;;;13.21;71.48
54592;BME280;40488;48.558;18.150;2023-06-14T00:40:34;99315.47;;;13.01;71.71
54592;BME280;40488;48.558;18.150;2023-06-14T00:43:03;99324.94;;;12.98;72.45
54592;BME280;40488;48.558;18.150;2023-06-14T00:45:32;99319.84;;;12.96;72.43
54592;BME280;40488;48.558;18.150;2023-06-14T00:48:05;99315.44;;;13.07;72.43
54592;BME280;40488;48.558;18.150;2023-06-14T00:50:35;99323.00;;;13.13;72.14
54592;BME280;40488;48.558;18.150;2023-06-14T00:53:05;99314.41;;;13.16;71.72
54592;BME280;40488;48.558;18.150;2023-06-14T00:55:34;99313.63;;;13.12;72.02
54592;BME280;40488;48.558;18.150;2023-06-14T00:58:03;99319.69;;;13.05;71.89
54592;BME280;40488;48.558;18.150;2023-06-14T01:00:32;99319.88;;;12.95;71.93
54592;BME280;40488;48.558;18.150;2023-06-14T01:03:14;99307.19;;;12.87;72.33
54592;BME280;40488;48.558;18.150;2023-06-14T01:06:01;99313.94;;;12.91;72.49
54592;BME280;40488;48.558;18.150;2023-06-14T01:08:41;99311.22;;;13.02;72.16
54592;BME280;40488;48.558;18.150;2023-06-14T01:11:21;99302.69;;;13.01;71.70
54592;BME280;40488;48.558;18.150;2023-06-14T01:13:52;99312.88;;;13.07;71.85
54592;BME280;40488;48.558;18.150;2023-06-14T01:16:22;99320.47;;;13.10;71.61
54592;BME280;40488;48.558;18.150;2023-06-14T01:18:56;99315.44;;;13.04;71.41
54592;BME280;40488;48.558;18.150;2023-06-14T01:21:26;99312.16;;;12.96;71.55
54592;BME280;40488;48.558;18.150;2023-06-14T01:23:57;99310.47;;;12.95;71.90
54592;BME280;40488;48.558;18.150;2023-06-14T01:26:27;99297.75;;;12.89;71.76
54592;BME280;40488;48.558;18.150;2023-06-14T01:28:59;99314.78;;;12.93;71.56
54592;BME280;40488;48.558;18.150;2023-06-14T01:31:29;99300.22;;;12.95;71.91
54592;BME280;40488;48.558;18.150;2023-06-14T01:34:07;99304.56;;;12.90;71.52
54592;BME280;40488;48.558;18.150;2023-06-14T01:36:36;99300.44;;;12.83;71.70
54592;BME280;40488;48.558;18.150;2023-06-14T01:39:10;99285.28;;;12.68;71.89
54592;BME280;40488;48.558;18.150;2023-06-14T01:41:40;99309.00;;;12.79;71.74
54592;BME280;40488;48.558;18.150;2023-06-14T01:44:10;99308.97;;;12.82;71.54
54592;BME280;40488;48.558;18.150;2023-06-14T01:46:40;99303.97;;;12.76;71.33
54592;BME280;40488;48.558;18.150;2023-06-14T01:49:11;99285.44;;;12.59;71.10
54592;BME280;40488;48.558;18.150;2023-06-14T01:51:40;99306.59;;;12.71;71.14
54592;BME280;40488;48.558;18.150;2023-06-14T01:54:10;99306.59;;;12.71;71.11
54592;BME280;40488;48.558;18.150;2023-06-14T01:56:39;99311.72;;;12.70;71.30
54592;BME280;40488;48.558;18.150;2023-06-14T01:59:08;99318.50;;;12.72;71.06
54592;BME280;40488;48.558;18.150;2023-06-14T02:01:37;99303.19;;;12.69;71.04
54592;BME280;40488;48.558;18.150;2023-06-14T02:04:06;99306.72;;;12.62;71.18
54592;BME280;40488;48.558;18.150;2023-06-14T02:06:37;99313.56;;;12.62;71.22
54592;BME280;40488;48.558;18.150;2023-06-14T02:09:06;99305.09;;;12.57;71.19
54592;BME280;40488;48.558;18.150;2023-06-14T02:11:36;99307.59;;;12.60;71.18
54592;BME280;40488;48.558;18.150;2023-06-14T02:14:05;99311.03;;;12.59;71.08
54592;BME280;40488;48.558;18.150;2023-06-14T02:16:38;99311.13;;;12.53;71.37
54592;BME280;40488;48.558;18.150;2023-06-14T02:19:07;99311.19;;;12.50;71.59
54592;BME280;40488;48.558;18.150;2023-06-14T02:21:36;99313.03;;;12.40;72.01
54592;BME280;40488;48.558;18.150;2023-06-14T02:24:06;99306.34;;;12.29;72.15
54592;BME280;40488;48.558;18.150;2023-06-14T02:26:36;99307.19;;;12.31;72.44
54592;BME280;40488;48.558;18.150;2023-06-14T02:29:06;99314.09;;;12.26;72.67
54592;BME280;40488;48.558;18.150;2023-06-14T02:31:36;99304.72;;;12.22;72.81
54592;BME280;40488;48.558;18.150;2023-06-14T02:34:05;99310.72;;;12.19;73.08
54592;BME280;40488;48.558;18.150;2023-06-14T02:36:36;99318.44;;;12.18;73.21
54592;BME280;40488;48.558;18.150;2023-06-14T02:39:09;99297.97;;;12.18;73.20
54592;BME280;40488;48.558;18.150;2023-06-14T02:41:39;99308.06;;;12.27;73.11
54592;BME280;40488;48.558;18.150;2023-06-14T02:44:10;99314.13;;;12.23;73.32
54592;BME280;40488;48.558;18.150;2023-06-14T02:46:40;99310.66;;;12.25;73.18
54592;BME280;40488;48.558;18.150;2023-06-14T02:49:11;99310.63;;;12.27;73.22
54592;BME280;40488;48.558;18.150;2023-06-14T02:51:40;99305.53;;;12.28;73.38
54592;BME280;40488;48.558;18.150;2023-06-14T02:54:09;99312.19;;;12.38;72.99
54592;BME280;40488;48.558;18.150;2023-06-14T02:56:40;99311.28;;;12.41;72.84
54592;BME280;40488;48.558;18.150;2023-06-14T02:59:09;99302.78;;;12.39;72.62
54592;BME280;40488;48.558;18.150;2023-06-14T03:01:39;99303.56;;;12.44;72.58
54592;BME280;40488;48.558;18.150;2023-06-14T03:04:11;99304.41;;;12.46;72.56
54592;BME280;40488;48.558;18.150;2023-06-14T03:06:42;99299.25;;;12.49;72.36
54592;BME280;40488;48.558;18.150;2023-06-14T03:09:20;99294.97;;;12.49;72.01
54592;BME280;40488;48.558;18.150;2023-06-14T03:11:50;99298.41;;;12.47;72.26
54592;BME280;40488;48.558;18.150;2023-06-14T03:14:19;99300.97;;;12.45;72.15
54592;BME280;40488;48.558;18.150;2023-06-14T03:16:49;99303.72;;;12.35;72.67
54592;BME280;40488;48.558;18.150;2023-06-14T03:19:24;99309.66;;;12.37;72.50
54592;BME280;40488;48.558;18.150;2023-06-14T03:21:55;99311.47;;;12.29;72.80
54592;BME280;40488;48.558;18.150;2023-06-14T03:24:28;99315.81;;;12.22;73.27
54592;BME280;40488;48.558;18.150;2023-06-14T03:27:01;99310.00;;;12.09;73.67
54592;BME280;40488;48.558;18.150;2023-06-14T03:29:30;99313.31;;;12.18;74.09
54592;BME280;40488;48.558;18.150;2023-06-14T03:32:00;99314.81;;;12.34;73.59
54592;BME280;40488;48.558;18.150;2023-06-14T03:34:36;99314.56;;;12.50;73.45
54592;BME280;40488;48.558;18.150;2023-06-14T03:37:07;99312.72;;;12.60;73.03
54592;BME280;40488;48.558;18.150;2023-06-14T03:39:35;99314.31;;;12.67;72.76
54592;BME280;40488;48.558;18.150;2023-06-14T03:42:07;99309.13;;;12.73;72.45
54592;BME280;40488;48.558;18.150;2023-06-14T03:44:36;99315.84;;;12.80;72.26
54592;BME280;40488;48.558;18.150;2023-06-14T03:47:05;99306.41;;;12.84;72.16
54592;BME280;40488;48.558;18.150;2023-06-14T03:49:35;99314.00;;;12.88;72.02
54592;BME280;40488;48.558;18.150;2023-06-14T03:52:04;99320.81;;;12.89;71.80
54592;BME280;40488;48.558;18.150;2023-06-14T03:54:35;99320.66;;;12.98;71.51
54592;BME280;40488;48.558;18.150;2023-06-14T03:57:09;99328.25;;;13.04;71.67
54592;BME280;40488;48.558;18.150;2023-06-14T03:59:38;99328.25;;;13.07;71.28
54592;BME280;40488;48.558;18.150;2023-06-14T04:02:07;99330.69;;;13.13;71.17
54592;BME280;40488;48.558;18.150;2023-06-14T04:04:36;99334.13;;;13.12;71.59
54592;BME280;40488;48.558;18.150;2023-06-14T04:07:05;99331.47;;;13.18;71.29
54592;BME280;40488;48.558;18.150;2023-06-14T04:09:36;99326.16;;;13.27;71.36
54592;BME280;40488;48.558;18.150;2023-06-14T04:12:06;99325.31;;;13.28;71.24
54592;BME280;40488;48.558;18.150;2023-06-14T04:14:37;99327.09;;;13.23;71.22
54592;BME280;40488;48.558;18.150;2023-06-14T04:17:09;99333.81;;;13.30;71.12
54592;BME280;40488;48.558;18.150;2023-06-14T04:19:40;99340.47;;;13.40;71.02
54592;BME280;40488;48.558;18.150;2023-06-14T04:22:09;99334.31;;;13.49;70.78
54592;BME280;40488;48.558;18.150;2023-06-14T04:24:40;99343.59;;;13.58;70.43
54592;BME280;40488;48.558;18.150;2023-06-14T04:27:11;99353.53;;;13.73;69.92
54592;BME280;40488;48.558;18.150;2023-06-14T04:29:43;99354.97;;;13.89;69.57
54592;BME280;40488;48.558;18.150;2023-06-14T04:32:13;99357.41;;;13.95;69.42
54592;BME280;40488;48.558;18.150;2023-06-14T04:34:42;99362.28;;;14.07;69.38
54592;BME280;40488;48.558;18.150;2023-06-14T04:37:11;99359.72;;;14.07;69.20
54592;BME280;40488;48.558;18.150;2023-06-14T04:39:42;99359.41;;;14.22;68.81
54592;BME280;40488;48.558;18.150;2023-06-14T04:42:11;99362.56;;;14.36;68.86
54592;BME280;40488;48.558;18.150;2023-06-14T04:44:45;99367.31;;;14.54;68.50
54592;BME280;40488;48.558;18.150;2023-06-14T04:47:15;99362.78;;;14.65;68.22
54592;BME280;40488;48.558;18.150;2023-06-14T04:49:44;99364.34;;;14.72;67.82
54592;BME280;40488;48.558;18.150;2023-06-14T04:52:13;99363.16;;;14.86;67.46
54592;BME280;40488;48.558;18.150;2023-06-14T04:54:44;99363.72;;;14.98;67.50
54592;BME280;40488;48.558;18.150;2023-06-14T04:57:17;99369.31;;;15.15;66.50
54592;BME280;40488;48.558;18.150;2023-06-14T04:59:54;99372.56;;;15.23;65.49
54592;BME280;40488;48.558;18.150;2023-06-14T05:02:25;99373.47;;;15.21;64.59
54592;BME280;40488;48.558;18.150;2023-06-14T05:04:54;99358.66;;;14.97;64.69
54592;BME280;40488;48.558;18.150;2023-06-14T05:07:25;99367.84;;;15.07;64.89
54592;BME280;40488;48.558;18.150;2023-06-14T05:09:54;99369.44;;;15.11;65.07
54592;BME280;40488;48.558;18.150;2023-06-14T05:12:23;99367.91;;;15.04;64.91
54592;BME280;40488;48.558;18.150;2023-06-14T05:14:53;99372.88;;;15.10;64.62
54592;BME280;40488;48.558;18.150;2023-06-14T05:17:23;99376.19;;;15.15;64.81
54592;BME280;40488;48.558;18.150;2023-06-14T05:19:51;99374.22;;;15.26;64.99
54592;BME280;40488;48.558;18.150;2023-06-14T05:22:20;99374.25;;;15.58;64.78
54592;BME280;40488;48.558;18.150;2023-06-14T05:24:50;99372.66;;;15.86;64.43
54592;BME280;40488;48.558;18.150;2023-06-14T05:27:18;99372.16;;;16.04;64.10
54592;BME280;40488;48.558;18.150;2023-06-14T05:29:47;99382.25;;;16.12;63.99
54592;BME280;40488;48.558;18.150;2023-06-14T05:32:20;99385.31;;;16.25;63.58
54592;BME280;40488;48.558;18.150;2023-06-14T05:34:48;99356.91;;;16.28;62.87
54592;BME280;40488;48.558;18.150;2023-06-14T05:37:17;99380.19;;;16.54;62.59
54592;BME280;40488;48.558;18.150;2023-06-14T05:39:46;99362.69;;;16.65;62.54
54592;BME280;40488;48.558;18.150;2023-06-14T05:42:15;99385.22;;;16.86;61.66
54592;BME280;40488;48.558;18.150;2023-06-14T05:44:44;99363.38;;;16.70;61.52
54592;BME280;40488;48.558;18.150;2023-06-14T05:47:13;99391.34;;;16.82;61.45
54592;BME280;40488;48.558;18.150;2023-06-14T05:49:43;99386.84;;;16.61;61.62
54592;BME280;40488;48.558;18.150;2023-06-14T05:52:12;99377.94;;;16.42;61.86
54592;BME280;40488;48.558;18.150;2023-06-14T05:54:41;99387.13;;;16.52;62.20
54592;BME280;40488;48.558;18.150;2023-06-14T05:57:10;99385.41;;;16.52;62.25
54592;BME280;40488;48.558;18.150;2023-06-14T05:59:39;99391.22;;;16.59;62.41
54592;BME280;40488;48.558;18.150;2023-06-14T06:02:08;99392.53;;;16.72;62.36
54592;BME280;40488;48.558;18.150;2023-06-14T06:04:37;99396.50;;;16.82;62.20
54592;BME280;40488;48.558;18.150;2023-06-14T06:07:08;99363.09;;;16.51;61.90
54592;BME280;40488;48.558;18.150;2023-06-14T06:09:37;99382.31;;;16.69;61.63
54592;BME280;40488;48.558;18.150;2023-06-14T06:12:07;99393.09;;;16.82;61.54
54592;BME280;40488;48.558;18.150;2023-06-14T06:14:35;99392.88;;;16.89;61.57
54592;BME280;40488;48.558;18.150;2023-06-14T06:17:05;99397.03;;;16.93;61.34
54592;BME280;40488;48.558;18.150;2023-06-14T06:19:33;99396.66;;;17.05;61.18
54592;BME280;40488;48.558;18.150;2023-06-14T06:22:03;99396.56;;;17.08;61.17
54592;BME280;40488;48.558;18.150;2023-06-14T06:24:35;99398.94;;;17.14;60.87
54592;BME280;40488;48.558;18.150;2023-06-14T06:27:04;99404.03;;;17.16;61.33
54592;BME280;40488;48.558;18.150;2023-06-14T06:29:35;99403.00;;;17.21;61.69
54592;BME280;40488;48.558;18.150;2023-06-14T06:32:05;99411.44;;;17.26;61.77
54592;BME280;40488;48.558;18.150;2023-06-14T06:34:34;99416.78;;;17.20;61.43
54592;BME280;40488;48.558;18.150;2023-06-14T06:37:03;99417.75;;;17.18;61.59
54592;BME280;40488;48.558;18.150;2023-06-14T06:39:32;99409.88;;;17.22;61.70
54592;BME280;40488;48.558;18.150;2023-06-14T06:42:02;99400.75;;;17.11;61.97
54592;BME280;40488;48.558;18.150;2023-06-14T06:44:36;99402.13;;;17.22;61.96
54592;BME280;40488;48.558;18.150;2023-06-14T06:47:06;99410.34;;;17.33;61.89
54592;BME280;40488;48.558;18.150;2023-06-14T06:49:37;99399.94;;;17.36;61.88
54592;BME280;40488;48.558;18.150;2023-06-14T06:52:07;99410.75;;;17.48;61.66
54592;BME280;40488;48.558;18.150;2023-06-14T06:54:36;99392.19;;;17.36;61.61
54592;BME280;40488;48.558;18.150;2023-06-14T06:57:06;99412.34;;;17.52;61.73
54592;BME280;40488;48.558;18.150;2023-06-14T06:59:35;99413.09;;;17.55;61.21
54592;BME280;40488;48.558;18.150;2023-06-14T07:02:05;99398.63;;;17.50;61.19
54592;BME280;40488;48.558;18.150;2023-06-14T07:04:34;99409.16;;;17.70;61.04
54592;BME280;40488;48.558;18.150;2023-06-14T07:07:04;99422.78;;;17.75;60.51
54592;BME280;40488;48.558;18.150;2023-06-14T07:09:32;99420.75;;;17.83;60.22
54592;BME280;40488;48.558;18.150;2023-06-14T07:12:01;99415.91;;;17.98;59.66
54592;BME280;40488;48.558;18.150;2023-06-14T07:14:31;99427.66;;;18.07;58.81
54592;BME280;40488;48.558;18.150;2023-06-14T07:17:00;99431.94;;;18.08;58.53
54592;BME280;40488;48.558;18.150;2023-06-14T07:19:29;99429.25;;;18.11;58.36
54592;BME280;40488;48.558;18.150;2023-06-14T07:21:59;99432.81;;;18.07;58.46
54592;BME280;40488;48.558;18.150;2023-06-14T07:24:27;99430.19;;;18.08;58.37
54592;BME280;40488;48.558;18.150;2023-06-14T07:26:56;99432.50;;;18.16;57.67
54592;BME280;40488;48.558;18.150;2023-06-14T07:29:25;99425.66;;;18.38;57.43
54592;BME280;40488;48.558;18.150;2023-06-14T07:31:55;99422.66;;;18.50;57.40
54592;BME280;40488;48.558;18.150;2023-06-14T07:34:24;99422.00;;;18.68;57.29
54592;BME280;40488;48.558;18.150;2023-06-14T07:36:53;99428.06;;;18.89;57.37
54592;BME280;40488;48.558;18.150;2023-06-14T07:39:22;99403.72;;;18.95;56.93
54592;BME280;40488;48.558;18.150;2023-06-14T07:41:51;99426.09;;;19.17;57.02
54592;BME280;40488;48.558;18.150;2023-06-14T07:44:20;99407.56;;;19.06;57.79
54592;BME280;40488;48.558;18.150;2023-06-14T07:46:48;99427.06;;;19.36;58.12
54592;BME280;40488;48.558;18.150;2023-06-14T07:49:19;99433.09;;;19.37;57.72
54592;BME280;40488;48.558;18.150;2023-06-14T07:51:48;99432.13;;;19.18;57.76
54592;BME280;40488;48.558;18.150;2023-06-14T07:54:18;99442.41;;;18.98;57.81
54592;BME280;40488;48.558;18.150;2023-06-14T07:56:47;99408.22;;;18.90;58.28
54592;BME280;40488;48.558;18.150;2023-06-14T07:59:17;99450.88;;;19.01;58.75
54592;BME280;40488;48.558;18.150;2023-06-14T08:01:46;99447.63;;;19.18;58.99
54592;BME280;40488;48.558;18.150;2023-06-14T08:04:15;99444.00;;;19.45;58.88
54592;BME280;40488;48.558;18.150;2023-06-14T08:06:46;99440.31;;;19.71;58.77
54592;BME280;40488;48.558;18.150;2023-06-14T08:09:15;99444.28;;;19.99;58.11
54592;BME280;40488;48.558;18.150;2023-06-14T08:11:44;99431.22;;;20.23;57.81
54592;BME280;40488;48.558;18.150;2023-06-14T08:14:13;99438.41;;;20.55;58.58
54592;BME280;40488;48.558;18.150;2023-06-14T08:16:42;99423.81;;;20.52;57.39
54592;BME280;40488;48.558;18.150;2023-06-14T08:19:11;99432.78;;;20.45;57.46
54592;BME280;40488;48.558;18.150;2023-06-14T08:21:40;99435.22;;;20.30;57.19
54592;BME280;40488;48.558;18.150;2023-06-14T08:24:10;99435.59;;;20.41;57.70
54592;BME280;40488;48.558;18.150;2023-06-14T08:26:41;99430.28;;;20.62;57.27
54592;BME280;40488;48.558;18.150;2023-06-14T08:29:10;99434.75;;;20.78;57.21
54592;BME280;40488;48.558;18.150;2023-06-14T08:31:39;99434.25;;;20.88;55.77
54592;BME280;40488;48.558;18.150;2023-06-14T08:34:08;99442.41;;;20.99;55.99
54592;BME280;40488;48.558;18.150;2023-06-14T08:36:37;99425.75;;;21.03;55.67
54592;BME280;40488;48.558;18.150;2023-06-14T08:39:10;99438.81;;;21.20;55.47
54592;BME280;40488;48.558;18.150;2023-06-14T08:41:39;99416.50;;;21.16;54.85
54592;BME280;40488;48.558;18.150;2023-06-14T08:44:08;99432.84;;;21.35;54.47
54592;BME280;40488;48.558;18.150;2023-06-14T08:46:37;99431.59;;;21.44;53.35
54592;BME280;40488;48.558;18.150;2023-06-14T08:49:06;99432.50;;;21.60;53.47
54592;BME280;40488;48.558;18.150;2023-06-14T08:51:38;99431.66;;;21.77;52.52
54592;BME280;40488;48.558;18.150;2023-06-14T08:54:09;99420.03;;;21.84;52.74
54592;BME280;40488;48.558;18.150;2023-06-14T08:56:40;99431.44;;;21.81;51.75
54592;BME280;40488;48.558;18.150;2023-06-14T08:59:11;99420.50;;;21.75;51.40
54592;BME280;40488;48.558;18.150;2023-06-14T09:01:41;99434.19;;;21.95;52.27
54592;BME280;40488;48.558;18.150;2023-06-14T09:04:30;99439.94;;;22.02;52.12
54592;BME280;40488;48.558;18.150;2023-06-14T09:07:00;99422.06;;;21.96;51.15
54592;BME280;40488;48.558;18.150;2023-06-14T09:09:30;99438.69;;;22.26;51.15
54592;BME280;40488;48.558;18.150;2023-06-14T09:11:59;99417.69;;;22.29;50.72
54592;BME280;40488;48.558;18.150;2023-06-14T09:14:28;99441.50;;;22.54;49.43
54592;BME280;40488;48.558;18.150;2023-06-14T09:16:57;99443.94;;;22.57;48.86
54592;BME280;40488;48.558;18.150;2023-06-14T09:19:26;99442.25;;;22.56;48.23
54592;BME280;40488;48.558;18.150;2023-06-14T09:21:57;99441.78;;;22.65;48.03
54592;BME280;40488;48.558;18.150;2023-06-14T09:24:26;99443.66;;;22.63;48.45
54592;BME280;40488;48.558;18.150;2023-06-14T09:26:56;99443.94;;;22.57;48.68
54592;BME280;40488;48.558;18.150;2023-06-14T09:29:26;99423.31;;;22.70;49.40
54592;BME280;40488;48.558;18.150;2023-06-14T09:31:55;99439.94;;;22.99;49.71
54592;BME280;40488;48.558;18.150;2023-06-14T09:34:24;99436.28;;;23.03;49.06
54592;BME280;40488;48.558;18.150;2023-06-14T09:36:52;99434.88;;;22.82;48.83
54592;BME280;40488;48.558;18.150;2023-06-14T09:39:22;99430.56;;;22.96;49.83
54592;BME280;40488;48.558;18.150;2023-06-14T09:41:53;99409.41;;;23.02;50.16
54592;BME280;40488;48.558;18.150;2023-06-14T09:44:25;99425.66;;;23.21;50.04
54592;BME280;40488;48.558;18.150;2023-06-14T09:46:56;99404.53;;;22.81;49.69
54592;BME280;40488;48.558;18.150;2023-06-14T09:49:24;99428.38;;;23.04;49.54
54592;BME280;40488;48.558;18.150;2023-06-14T09:51:58;99407.72;;;23.01;49.42
54592;BME280;40488;48.558;18.150;2023-06-14T09:54:28;99418.19;;;23.31;49.55
54592;BME280;40488;48.558;18.150;2023-06-14T09:56:58;99424.13;;;23.33;49.55
54592;BME280;40488;48.558;18.150;2023-06-14T09:59:31;99412.56;;;23.39;51.03
54592;BME280;40488;48.558;18.150;2023-06-14T10:02:09;99418.41;;;23.42;48.98
54592;BME280;40488;48.558;18.150;2023-06-14T10:04:46;99418.25;;;23.45;47.90
54592;BME280;40488;48.558;18.150;2023-06-14T10:07:19;99420.69;;;23.32;48.33
54592;BME280;40488;48.558;18.150;2023-06-14T10:09:49;99393.94;;;23.15;47.12
54592;BME280;40488;48.558;18.150;2023-06-14T10:12:18;99415.22;;;23.53;47.67
54592;BME280;40488;48.558;18.150;2023-06-14T10:14:51;99416.97;;;23.82;47.48
54592;BME280;40488;48.558;18.150;2023-06-14T10:17:34;99390.72;;;23.41;46.46
54592;BME280;40488;48.558;18.150;2023-06-14T10:20:23;99414.75;;;23.46;45.85
54592;BME280;40488;48.558;18.150;2023-06-14T10:23:00;99417.56;;;23.57;45.98
54592;BME280;40488;48.558;18.150;2023-06-14T10:25:31;99414.63;;;23.48;45.83
54592;BME280;40488;48.558;18.150;2023-06-14T10:28:14;99408.63;;;23.61;46.04
54592;BME280;40488;48.558;18.150;2023-06-14T10:31:04;99404.00;;;23.80;46.77
54592;BME280;40488;48.558;18.150;2023-06-14T10:33:34;99405.09;;;23.62;47.01
54592;BME280;40488;48.558;18.150;2023-06-14T10:39:00;99411.66;;;23.97;47.07
54592;BME280;40488;48.558;18.150;2023-06-14T10:41:30;99404.38;;;24.18;46.01
54592;BME280;40488;48.558;18.150;2023-06-14T10:46:40;99402.53;;;24.05;44.25
54592;BME280;40488;48.558;18.150;2023-06-14T10:49:11;99392.25;;;24.17;44.79
54592;BME280;40488;48.558;18.150;2023-06-14T10:51:42;99396.09;;;24.26;44.56
54592;BME280;40488;48.558;18.150;2023-06-14T10:54:13;99396.09;;;24.26;44.09
54592;BME280;40488;48.558;18.150;2023-06-14T10:56:46;99390.03;;;24.25;43.88
54592;BME280;40488;48.558;18.150;2023-06-14T10:59:16;99385.44;;;24.29;42.61
54592;BME280;40488;48.558;18.150;2023-06-14T11:01:50;99389.84;;;24.42;43.14
54592;BME280;40488;48.558;18.150;2023-06-14T11:04:30;99391.41;;;24.45;43.20
54592;BME280;40488;48.558;18.150;2023-06-14T11:07:10;99391.47;;;24.57;42.93
54592;BME280;40488;48.558;18.150;2023-06-14T11:10:03;99347.78;;;24.47;42.57
54592;BME280;40488;48.558;18.150;2023-06-14T11:12:35;99378.34;;;24.59;41.66
54592;BME280;40488;48.558;18.150;2023-06-14T11:15:06;99374.59;;;24.63;41.50
54592;BME280;40488;48.558;18.150;2023-06-14T11:17:36;99381.28;;;24.67;41.31
54592;BME280;40488;48.558;18.150;2023-06-14T11:20:09;99381.28;;;24.67;40.70
54592;BME280;40488;48.558;18.150;2023-06-14T11:22:41;99378.88;;;24.50;40.53
54592;BME280;40488;48.558;18.150;2023-06-14T11:25:11;99384.94;;;24.50;41.20
54592;BME280;40488;48.558;18.150;2023-06-14T11:27:42;99376.50;;;24.47;40.50
54592;BME280;40488;48.558;18.150;2023-06-14T11:30:12;99376.47;;;24.61;40.18
54592;BME280;40488;48.558;18.150;2023-06-14T11:32:46;99371.78;;;24.66;39.65
54592;BME280;40488;48.558;18.150;2023-06-14T11:35:15;99382.78;;;24.71;39.49
54592;BME280;40488;48.558;18.150;2023-06-14T11:37:45;99377.44;;;24.87;39.13
54592;BME280;40488;48.558;18.150;2023-06-14T11:40:15;99371.75;;;24.94;38.41
54592;BME280;40488;48.558;18.150;2023-06-14T11:42:44;99374.66;;;25.16;38.75
54592;BME280;40488;48.558;18.150;2023-06-14T11:45:12;99363.94;;;25.34;38.29
54592;BME280;40488;48.558;18.150;2023-06-14T11:47:41;99373.06;;;25.53;37.33
54592;BME280;40488;48.558;18.150;2023-06-14T11:50:12;99373.50;;;25.72;37.51
54592;BME280;40488;48.558;18.150;2023-06-14T11:52:41;99377.50;;;25.78;36.69
54592;BME280;40488;48.558;18.150;2023-06-14T11:55:10;99377.19;;;25.95;37.18
54592;BME280;40488;48.558;18.150;2023-06-14T11:57:39;99378.56;;;25.88;36.30
54592;BME280;40488;48.558;18.150;2023-06-14T12:00:11;99375.19;;;25.48;37.41
54592;BME280;40488;48.558;18.150;2023-06-14T12:02:42;99371.50;;;25.11;38.12
54592;BME280;40488;48.558;18.150;2023-06-14T12:05:13;99372.09;;;25.02;38.84
54592;BME280;40488;48.558;18.150;2023-06-14T12:07:43;99382.53;;;25.02;39.51
54592;BME280;40488;48.558;18.150;2023-06-14T12:10:14;99370.13;;;24.51;40.20
54592;BME280;40488;48.558;18.150;2023-06-14T12:12:43;99341.72;;;23.90;41.36
54592;BME280;40488;48.558;18.150;2023-06-14T12:15:12;99376.09;;;23.82;41.72
54592;BME280;40488;48.558;18.150;2023-06-14T12:17:42;99370.06;;;23.52;42.08
54592;BME280;40488;48.558;18.150;2023-06-14T12:20:11;99378.44;;;23.43;42.25
54592;BME280;40488;48.558;18.150;2023-06-14T12:22:50;99378.44;;;23.43;42.10
54592;BME280;40488;48.558;18.150;2023-06-14T12:25:25;99374.44;;;23.22;42.49
54592;BME280;40488;48.558;18.150;2023-06-14T12:27:55;99371.41;;;23.14;42.84
54592;BME280;40488;48.558;18.150;2023-06-14T12:30:24;99377.16;;;23.05;43.21
54592;BME280;40488;48.558;18.150;2023-06-14T12:32:53;99370.59;;;22.98;43.16
54592;BME280;40488;48.558;18.150;2023-06-14T12:35:22;99353.88;;;23.02;43.48
54592;BME280;40488;48.558;18.150;2023-06-14T12:37:52;99377.31;;;23.47;42.87
54592;BME280;40488;48.558;18.150;2023-06-14T12:40:22;99374.41;;;23.67;41.86
54592;BME280;40488;48.558;18.150;2023-06-14T12:42:51;99370.34;;;23.91;41.95
54592;BME280;40488;48.558;18.150;2023-06-14T12:45:20;99367.56;;;24.09;41.36
54592;BME280;40488;48.558;18.150;2023-06-14T12:47:50;99357.47;;;24.02;40.35
54592;BME280;40488;48.558;18.150;2023-06-14T12:50:20;99368.50;;;24.22;39.61
54592;BME280;40488;48.558;18.150;2023-06-14T12:52:54;99367.53;;;24.51;40.25
54592;BME280;40488;48.558;18.150;2023-06-14T12:55:23;99349.66;;;24.17;39.60
54592;BME280;40488;48.558;18.150;2023-06-14T12:57:52;99365.72;;;24.11;39.26
54592;BME280;40488;48.558;18.150;2023-06-14T13:00:21;99352.25;;;23.74;39.20
54592;BME280;40488;48.558;18.150;2023-06-14T13:02:51;99376.59;;;23.59;39.96
54592;BME280;40488;48.558;18.150;2023-06-14T13:05:20;99376.56;;;23.45;40.67
54592;BME280;40488;48.558;18.150;2023-06-14T13:07:49;99370.53;;;23.29;41.50
54592;BME280;40488;48.558;18.150;2023-06-14T13:10:19;99371.56;;;23.11;41.80
54592;BME280;40488;48.558;18.150;2023-06-14T13:12:48;99364.34;;;23.16;41.90